sensor_id;sensor_type;location;lat;lon;timestamp;P1;durP1;ratioP1;P2;durP2;ratioP2
5730;SDS011;2890;51.950;7.668;2022-09-12T00:00:40;17.27;;;13.45;;
5730;SDS011;2890;51.950;7.668;2022-09-12T00:03:07;20.23;;;13.57;;
5730;SDS011;2890;51.950;7.668;2022-09-12T00:05:39;17.97;;;13.27;;
5730;SDS011;2890;51.950;7.668;2022-09-12T00:08:06;17.88;;;14.98;;
5730;SDS011;2890;51.950;7.668;2022-09-12T00:10:37;19.27;;;14.27;;
5730;SDS011;2890;51.950;7.668;2022-09-12T00:13:05;18.75;;;14.50;;
5730;SDS011;2890;51.950;7.668;2022-09-12T00:15:36;18.45;;;14.23;;
5730;SDS011;2890;51.950;7.668;2022-09-12T00:18:03;16.88;;;13.25;;
5730;SDS011;2890;51.950;7.668;2022-09-12T00:20:30;17.67;;;13.97;;
5730;SDS011;2890;51.950;7.668;2022-09-12T00:22:57;18.15;;;13.05;;
5730;SDS011;2890;51.950;7.668;2022-09-12T00:25:24;17.30;;;12.80;;
5730;SDS011;2890;51.950;7.668;2022-09-12T00:27:53;13.88;;;12.35;;
5730;SDS011;2890;51.950;7.668;2022-09-12T00:30:19;19.17;;;14.32;;
5730;SDS011;2890;51.950;7.668;2022-09-12T00:32:46;19.00;;;12.77;;
5730;SDS011;2890;51.950;7.668;2022-09-12T00:35:15;15.00;;;12.90;;
5730;SDS011;2890;51.950;7.668;2022-09-12T00:37:42;23.25;;;14.30;;
5730;SDS011;2890;51.950;7.668;2022-09-12T00:40:09;16.80;;;13.33;;
5730;SDS011;2890;51.950;7.668;2022-09-12T00:42:36;17.98;;;14.05;;
5730;SDS011;2890;51.950;7.668;2022-09-12T00:45:04;17.07;;;13.33;;
5730;SDS011;2890;51.950;7.668;2022-09-12T00:47:32;21.10;;;13.60;;
5730;SDS011;2890;51.950;7.668;2022-09-12T00:50:09;17.77;;;13.00;;
5730;SDS011;2890;51.950;7.668;2022-09-12T00:52:40;17.73;;;14.30;;
5730;SDS011;2890;51.950;7.668;2022-09-12T00:55:09;15.50;;;12.13;;
5730;SDS011;2890;51.950;7.668;2022-09-12T00:57:41;15.82;;;13.07;;
5730;SDS011;2890;51.950;7.668;2022-09-12T01:00:14;18.30;;;13.43;;
5730;SDS011;2890;51.950;7.668;2022-09-12T01:02:44;19.97;;;14.20;;
5730;SDS011;2890;51.950;7.668;2022-09-12T01:05:14;19.65;;;12.88;;
5730;SDS011;2890;51.950;7.668;2022-09-12T01:07:41;16.23;;;13.73;;
5730;SDS011;2890;51.950;7.668;2022-09-12T01:10:12;17.52;;;13.35;;
5730;SDS011;2890;51.950;7.668;2022-09-12T01:12:40;18.13;;;13.05;;
5730;SDS011;2890;51.950;7.668;2022-09-12T01:15:09;22.50;;;15.27;;
5730;SDS011;2890;51.950;7.668;2022-09-12T01:17:51;19.20;;;13.85;;
5730;SDS011;2890;51.950;7.668;2022-09-12T01:20:33;16.23;;;13.07;;
5730;SDS011;2890;51.950;7.668;2022-09-12T01:23:24;16.75;;;13.50;;
5730;SDS011;2890;51.950;7.668;2022-09-12T01:26:25;18.47;;;14.40;;
5730;SDS011;2890;51.950;7.668;2022-09-12T01:29:13;17.63;;;14.33;;
5730;SDS011;2890;51.950;7.668;2022-09-12T01:31:58;17.20;;;13.03;;
5730;SDS011;2890;51.950;7.668;2022-09-12T01:34:34;16.80;;;14.20;;
5730;SDS011;2890;51.950;7.668;2022-09-12T01:37:10;17.77;;;13.37;;
5730;SDS011;2890;51.950;7.668;2022-09-12T01:39:43;19.83;;;14.10;;
5730;SDS011;2890;51.950;7.668;2022-09-12T01:42:19;20.95;;;14.98;;
5730;SDS011;2890;51.950;7.668;2022-09-12T01:44:52;19.10;;;14.13;;
5730;SDS011;2890;51.950;7.668;2022-09-12T01:47:29;19.10;;;14.67;;
5730;SDS011;2890;51.950;7.668;2022-09-12T01:50:05;22.73;;;14.87;;
5730;SDS011;2890;51.950;7.668;2022-09-12T01:52:33;22.37;;;14.93;;
5730;SDS011;2890;51.950;7.668;2022-09-12T01:55:09;19.43;;;13.77;;
5730;SDS011;2890;51.950;7.668;2022-09-12T01:57:38;20.93;;;15.17;;
5730;SDS011;2890;51.950;7.668;2022-09-12T02:00:10;19.20;;;15.13;;
5730;SDS011;2890;51.950;7.668;2022-09-12T02:02:39;22.23;;;15.97;;
5730;SDS011;2890;51.950;7.668;2022-09-12T02:05:14;21.67;;;14.70;;
5730;SDS011;2890;51.950;7.668;2022-09-12T02:07:45;17.97;;;13.97;;
5730;SDS011;2890;51.950;7.668;2022-09-12T02:10:17;20.27;;;14.37;;
5730;SDS011;2890;51.950;7.668;2022-09-12T02:12:47;18.17;;;13.90;;
5730;SDS011;2890;51.950;7.668;2022-09-12T02:15:17;20.73;;;14.67;;
5730;SDS011;2890;51.950;7.668;2022-09-12T02:17:49;20.20;;;14.73;;
5730;SDS011;2890;51.950;7.668;2022-09-12T02:20:19;19.63;;;14.73;;
5730;SDS011;2890;51.950;7.668;2022-09-12T02:22:48;20.03;;;14.33;;
5730;SDS011;2890;51.950;7.668;2022-09-12T02:25:17;18.33;;;13.77;;
5730;SDS011;2890;51.950;7.668;2022-09-12T02:27:45;19.70;;;14.57;;
5730;SDS011;2890;51.950;7.668;2022-09-12T02:30:16;18.40;;;13.63;;
5730;SDS011;2890;51.950;7.668;2022-09-12T02:32:44;18.08;;;14.40;;
5730;SDS011;2890;51.950;7.668;2022-09-12T02:35:24;19.73;;;14.38;;
5730;SDS011;2890;51.950;7.668;2022-09-12T02:37:58;23.10;;;15.10;;
5730;SDS011;2890;51.950;7.668;2022-09-12T02:40:31;20.07;;;14.33;;
5730;SDS011;2890;51.950;7.668;2022-09-12T02:42:58;18.27;;;14.07;;
5730;SDS011;2890;51.950;7.668;2022-09-12T02:45:26;22.40;;;13.33;;
5730;SDS011;2890;51.950;7.668;2022-09-12T02:47:55;20.70;;;14.83;;
5730;SDS011;2890;51.950;7.668;2022-09-12T02:50:27;17.38;;;13.65;;
5730;SDS011;2890;51.950;7.668;2022-09-12T02:52:55;18.07;;;14.40;;
5730;SDS011;2890;51.950;7.668;2022-09-12T02:55:24;17.80;;;14.18;;
5730;SDS011;2890;51.950;7.668;2022-09-12T02:57:52;19.27;;;14.60;;
5730;SDS011;2890;51.950;7.668;2022-09-12T03:00:18;20.30;;;14.60;;
5730;SDS011;2890;51.950;7.668;2022-09-12T03:03:10;18.67;;;14.47;;
5730;SDS011;2890;51.950;7.668;2022-09-12T03:05:58;15.57;;;13.47;;
5730;SDS011;2890;51.950;7.668;2022-09-12T03:08:30;18.23;;;13.90;;
5730;SDS011;2890;51.950;7.668;2022-09-12T03:11:12;19.10;;;13.30;;
5730;SDS011;2890;51.950;7.668;2022-09-12T03:13:52;16.03;;;12.77;;
5730;SDS011;2890;51.950;7.668;2022-09-12T03:16:26;16.87;;;13.07;;
5730;SDS011;2890;51.950;7.668;2022-09-12T03:19:01;14.63;;;11.77;;
5730;SDS011;2890;51.950;7.668;2022-09-12T03:21:36;15.40;;;12.00;;
5730;SDS011;2890;51.950;7.668;2022-09-12T03:24:11;14.73;;;11.93;;
5730;SDS011;2890;51.950;7.668;2022-09-12T03:26:43;13.63;;;11.57;;
5730;SDS011;2890;51.950;7.668;2022-09-12T03:29:13;15.90;;;13.03;;
5730;SDS011;2890;51.950;7.668;2022-09-12T03:31:48;17.07;;;12.80;;
5730;SDS011;2890;51.950;7.668;2022-09-12T03:34:17;15.53;;;12.87;;
5730;SDS011;2890;51.950;7.668;2022-09-12T03:36:44;17.07;;;13.17;;
5730;SDS011;2890;51.950;7.668;2022-09-12T03:39:11;17.53;;;13.07;;
5730;SDS011;2890;51.950;7.668;2022-09-12T03:41:38;17.67;;;13.87;;
5730;SDS011;2890;51.950;7.668;2022-09-12T03:44:05;22.10;;;14.55;;
5730;SDS011;2890;51.950;7.668;2022-09-12T03:46:32;19.03;;;14.93;;
5730;SDS011;2890;51.950;7.668;2022-09-12T03:48:59;18.43;;;14.43;;
5730;SDS011;2890;51.950;7.668;2022-09-12T03:51:27;18.70;;;15.00;;
5730;SDS011;2890;51.950;7.668;2022-09-12T03:53:54;20.83;;;15.80;;
5730;SDS011;2890;51.950;7.668;2022-09-12T03:56:20;19.43;;;15.07;;
5730;SDS011;2890;51.950;7.668;2022-09-12T03:58:47;20.10;;;14.27;;
5730;SDS011;2890;51.950;7.668;2022-09-12T04:01:14;16.53;;;13.53;;
5730;SDS011;2890;51.950;7.668;2022-09-12T04:03:43;18.17;;;14.03;;
5730;SDS011;2890;51.950;7.668;2022-09-12T04:06:11;18.47;;;14.43;;
5730;SDS011;2890;51.950;7.668;2022-09-12T04:08:41;17.97;;;14.17;;
5730;SDS011;2890;51.950;7.668;2022-09-12T04:11:09;19.33;;;14.83;;
5730;SDS011;2890;51.950;7.668;2022-09-12T04:13:38;17.63;;;14.60;;
5730;SDS011;2890;51.950;7.668;2022-09-12T04:16:06;19.88;;;13.98;;
5730;SDS011;2890;51.950;7.668;2022-09-12T04:18:34;19.47;;;14.43;;
5730;SDS011;2890;51.950;7.668;2022-09-12T04:21:02;22.33;;;14.40;;
5730;SDS011;2890;51.950;7.668;2022-09-12T04:23:30;20.33;;;15.10;;
5730;SDS011;2890;51.950;7.668;2022-09-12T04:25:59;21.10;;;15.25;;
5730;SDS011;2890;51.950;7.668;2022-09-12T04:28:27;20.67;;;14.48;;
5730;SDS011;2890;51.950;7.668;2022-09-12T04:30:59;20.63;;;15.27;;
5730;SDS011;2890;51.950;7.668;2022-09-12T04:33:27;19.67;;;14.88;;
5730;SDS011;2890;51.950;7.668;2022-09-12T04:35:53;17.23;;;13.70;;
5730;SDS011;2890;51.950;7.668;2022-09-12T04:38:20;27.87;;;15.37;;
5730;SDS011;2890;51.950;7.668;2022-09-12T04:40:47;20.87;;;14.73;;
5730;SDS011;2890;51.950;7.668;2022-09-12T04:43:15;20.08;;;15.20;;
5730;SDS011;2890;51.950;7.668;2022-09-12T04:45:41;18.33;;;14.80;;
5730;SDS011;2890;51.950;7.668;2022-09-12T04:48:08;17.10;;;13.83;;
5730;SDS011;2890;51.950;7.668;2022-09-12T04:50:35;20.70;;;14.67;;
5730;SDS011;2890;51.950;7.668;2022-09-12T04:53:01;17.30;;;14.20;;
5730;SDS011;2890;51.950;7.668;2022-09-12T04:55:28;19.73;;;14.73;;
5730;SDS011;2890;51.950;7.668;2022-09-12T04:57:55;19.23;;;14.60;;
5730;SDS011;2890;51.950;7.668;2022-09-12T05:00:23;19.97;;;14.20;;
5730;SDS011;2890;51.950;7.668;2022-09-12T05:02:50;21.87;;;15.70;;
5730;SDS011;2890;51.950;7.668;2022-09-12T05:05:17;24.07;;;14.93;;
5730;SDS011;2890;51.950;7.668;2022-09-12T05:07:44;24.00;;;16.30;;
5730;SDS011;2890;51.950;7.668;2022-09-12T05:10:10;21.03;;;15.50;;
5730;SDS011;2890;51.950;7.668;2022-09-12T05:12:37;19.80;;;15.18;;
5730;SDS011;2890;51.950;7.668;2022-09-12T05:15:04;21.77;;;13.77;;
5730;SDS011;2890;51.950;7.668;2022-09-12T05:17:33;26.23;;;14.10;;
5730;SDS011;2890;51.950;7.668;2022-09-12T05:20:00;22.13;;;14.17;;
5730;SDS011;2890;51.950;7.668;2022-09-12T05:22:27;17.60;;;14.87;;
5730;SDS011;2890;51.950;7.668;2022-09-12T05:24:53;19.27;;;14.27;;
5730;SDS011;2890;51.950;7.668;2022-09-12T05:27:20;20.15;;;13.20;;
5730;SDS011;2890;51.950;7.668;2022-09-12T05:29:47;17.10;;;14.17;;
5730;SDS011;2890;51.950;7.668;2022-09-12T05:32:13;16.87;;;14.10;;
5730;SDS011;2890;51.950;7.668;2022-09-12T05:34:42;15.20;;;13.57;;
5730;SDS011;2890;51.950;7.668;2022-09-12T05:37:08;17.03;;;14.00;;
5730;SDS011;2890;51.950;7.668;2022-09-12T05:39:35;17.58;;;13.93;;
5730;SDS011;2890;51.950;7.668;2022-09-12T05:42:02;18.40;;;14.23;;
5730;SDS011;2890;51.950;7.668;2022-09-12T05:44:30;19.50;;;14.30;;
5730;SDS011;2890;51.950;7.668;2022-09-12T05:46:57;16.33;;;13.50;;
5730;SDS011;2890;51.950;7.668;2022-09-12T05:49:23;16.55;;;13.43;;
5730;SDS011;2890;51.950;7.668;2022-09-12T05:51:52;18.45;;;13.80;;
5730;SDS011;2890;51.950;7.668;2022-09-12T05:54:18;19.33;;;14.40;;
5730;SDS011;2890;51.950;7.668;2022-09-12T05:56:46;18.63;;;14.33;;
5730;SDS011;2890;51.950;7.668;2022-09-12T05:59:15;16.43;;;13.53;;
5730;SDS011;2890;51.950;7.668;2022-09-12T06:01:43;18.05;;;13.63;;
5730;SDS011;2890;51.950;7.668;2022-09-12T06:04:11;17.37;;;14.53;;
5730;SDS011;2890;51.950;7.668;2022-09-12T06:06:38;18.30;;;14.00;;
5730;SDS011;2890;51.950;7.668;2022-09-12T06:09:10;19.20;;;13.67;;
5730;SDS011;2890;51.950;7.668;2022-09-12T06:11:37;15.70;;;13.25;;
5730;SDS011;2890;51.950;7.668;2022-09-12T06:14:06;15.73;;;13.65;;
5730;SDS011;2890;51.950;7.668;2022-09-12T06:16:34;17.60;;;14.07;;
5730;SDS011;2890;51.950;7.668;2022-09-12T06:19:02;17.02;;;14.43;;
5730;SDS011;2890;51.950;7.668;2022-09-12T06:21:30;16.83;;;14.40;;
5730;SDS011;2890;51.950;7.668;2022-09-12T06:23:59;15.93;;;13.23;;
5730;SDS011;2890;51.950;7.668;2022-09-12T06:26:27;16.25;;;13.20;;
5730;SDS011;2890;51.950;7.668;2022-09-12T06:28:55;18.17;;;13.50;;
5730;SDS011;2890;51.950;7.668;2022-09-12T06:31:25;19.05;;;13.20;;
5730;SDS011;2890;51.950;7.668;2022-09-12T06:33:54;20.60;;;12.90;;
5730;SDS011;2890;51.950;7.668;2022-09-12T06:36:22;20.40;;;11.38;;
5730;SDS011;2890;51.950;7.668;2022-09-12T06:38:54;14.45;;;12.07;;
5730;SDS011;2890;51.950;7.668;2022-09-12T06:41:22;12.32;;;10.48;;
5730;SDS011;2890;51.950;7.668;2022-09-12T06:43:51;13.35;;;10.77;;
5730;SDS011;2890;51.950;7.668;2022-09-12T06:46:18;14.18;;;9.80;;
5730;SDS011;2890;51.950;7.668;2022-09-12T06:48:45;13.20;;;9.43;;
5730;SDS011;2890;51.950;7.668;2022-09-12T06:51:12;10.27;;;8.95;;
5730;SDS011;2890;51.950;7.668;2022-09-12T06:53:41;10.73;;;9.02;;
5730;SDS011;2890;51.950;7.668;2022-09-12T06:56:08;9.77;;;8.60;;
5730;SDS011;2890;51.950;7.668;2022-09-12T06:58:37;9.93;;;8.93;;
5730;SDS011;2890;51.950;7.668;2022-09-12T07:01:06;10.60;;;8.52;;
5730;SDS011;2890;51.950;7.668;2022-09-12T07:03:34;10.95;;;8.25;;
5730;SDS011;2890;51.950;7.668;2022-09-12T07:06:02;10.13;;;9.13;;
5730;SDS011;2890;51.950;7.668;2022-09-12T07:08:30;8.50;;;7.40;;
5730;SDS011;2890;51.950;7.668;2022-09-12T07:10:58;8.15;;;7.35;;
5730;SDS011;2890;51.950;7.668;2022-09-12T07:13:26;8.90;;;8.00;;
5730;SDS011;2890;51.950;7.668;2022-09-12T07:15:53;9.27;;;8.38;;
5730;SDS011;2890;51.950;7.668;2022-09-12T07:18:21;12.02;;;8.05;;
5730;SDS011;2890;51.950;7.668;2022-09-12T07:20:48;9.55;;;7.80;;
5730;SDS011;2890;51.950;7.668;2022-09-12T07:23:15;8.55;;;7.72;;
5730;SDS011;2890;51.950;7.668;2022-09-12T07:25:42;9.05;;;8.25;;
5730;SDS011;2890;51.950;7.668;2022-09-12T07:28:08;10.20;;;7.50;;
5730;SDS011;2890;51.950;7.668;2022-09-12T07:30:35;8.38;;;7.55;;
5730;SDS011;2890;51.950;7.668;2022-09-12T07:33:03;13.63;;;9.65;;
5730;SDS011;2890;51.950;7.668;2022-09-12T07:35:32;8.88;;;7.97;;
5730;SDS011;2890;51.950;7.668;2022-09-12T07:37:59;7.78;;;7.00;;
5730;SDS011;2890;51.950;7.668;2022-09-12T07:40:26;8.45;;;7.22;;
5730;SDS011;2890;51.950;7.668;2022-09-12T07:42:53;9.77;;;7.57;;
5730;SDS011;2890;51.950;7.668;2022-09-12T07:45:19;10.65;;;7.18;;
5730;SDS011;2890;51.950;7.668;2022-09-12T07:47:46;7.82;;;6.70;;
5730;SDS011;2890;51.950;7.668;2022-09-12T07:50:13;9.73;;;7.88;;
5730;SDS011;2890;51.950;7.668;2022-09-12T07:52:41;7.97;;;6.82;;
5730;SDS011;2890;51.950;7.668;2022-09-12T07:55:08;8.65;;;7.63;;
5730;SDS011;2890;51.950;7.668;2022-09-12T07:57:34;7.93;;;6.70;;
5730;SDS011;2890;51.950;7.668;2022-09-12T08:00:02;8.07;;;7.28;;
5730;SDS011;2890;51.950;7.668;2022-09-12T08:02:29;8.90;;;7.35;;
5730;SDS011;2890;51.950;7.668;2022-09-12T08:04:56;8.60;;;7.20;;
5730;SDS011;2890;51.950;7.668;2022-09-12T08:07:23;7.47;;;6.55;;
5730;SDS011;2890;51.950;7.668;2022-09-12T08:09:51;7.70;;;6.63;;
5730;SDS011;2890;51.950;7.668;2022-09-12T08:12:18;8.60;;;7.32;;
5730;SDS011;2890;51.950;7.668;2022-09-12T08:14:45;8.00;;;6.80;;
5730;SDS011;2890;51.950;7.668;2022-09-12T08:17:12;8.15;;;7.15;;
5730;SDS011;2890;51.950;7.668;2022-09-12T08:19:39;7.88;;;6.97;;
5730;SDS011;2890;51.950;7.668;2022-09-12T08:22:06;7.35;;;6.57;;
5730;SDS011;2890;51.950;7.668;2022-09-12T08:24:32;9.27;;;6.88;;
5730;SDS011;2890;51.950;7.668;2022-09-12T08:27:00;8.45;;;7.65;;
5730;SDS011;2890;51.950;7.668;2022-09-12T08:29:27;8.18;;;7.15;;
5730;SDS011;2890;51.950;7.668;2022-09-12T08:31:54;8.77;;;6.97;;
5730;SDS011;2890;51.950;7.668;2022-09-12T08:34:21;7.20;;;6.50;;
5730;SDS011;2890;51.950;7.668;2022-09-12T08:36:48;8.77;;;7.68;;
5730;SDS011;2890;51.950;7.668;2022-09-12T08:39:18;8.65;;;7.63;;
5730;SDS011;2890;51.950;7.668;2022-09-12T08:41:45;7.78;;;6.97;;
5730;SDS011;2890;51.950;7.668;2022-09-12T08:44:27;9.35;;;7.00;;
5730;SDS011;2890;51.950;7.668;2022-09-12T08:49:55;9.45;;;6.78;;
5730;SDS011;2890;51.950;7.668;2022-09-12T08:52:28;6.85;;;6.15;;
5730;SDS011;2890;51.950;7.668;2022-09-12T08:55:00;10.32;;;6.95;;
5730;SDS011;2890;51.950;7.668;2022-09-12T08:57:29;9.82;;;6.80;;
5730;SDS011;2890;51.950;7.668;2022-09-12T08:59:57;8.15;;;6.53;;
5730;SDS011;2890;51.950;7.668;2022-09-12T09:02:31;9.02;;;6.38;;
5730;SDS011;2890;51.950;7.668;2022-09-12T09:05:13;6.60;;;6.00;;
5730;SDS011;2890;51.950;7.668;2022-09-12T09:08:01;10.15;;;6.40;;
5730;SDS011;2890;51.950;7.668;2022-09-12T09:10:39;7.53;;;6.40;;
5730;SDS011;2890;51.950;7.668;2022-09-12T09:13:15;10.25;;;6.68;;
5730;SDS011;2890;51.950;7.668;2022-09-12T09:16:08;10.25;;;6.93;;
5730;SDS011;2890;51.950;7.668;2022-09-12T09:18:40;11.70;;;6.65;;
5730;SDS011;2890;51.950;7.668;2022-09-12T09:21:11;9.77;;;6.28;;
5730;SDS011;2890;51.950;7.668;2022-09-12T09:23:41;8.15;;;6.03;;
5730;SDS011;2890;51.950;7.668;2022-09-12T09:26:09;7.63;;;6.03;;
5730;SDS011;2890;51.950;7.668;2022-09-12T09:28:40;8.52;;;6.30;;
5730;SDS011;2890;51.950;7.668;2022-09-12T09:31:11;8.98;;;6.65;;
5730;SDS011;2890;51.950;7.668;2022-09-12T09:33:40;7.72;;;6.40;;
5730;SDS011;2890;51.950;7.668;2022-09-12T09:36:09;6.30;;;5.70;;
5730;SDS011;2890;51.950;7.668;2022-09-12T09:38:42;10.73;;;6.68;;
5730;SDS011;2890;51.950;7.668;2022-09-12T09:41:18;7.72;;;6.88;;
5730;SDS011;2890;51.950;7.668;2022-09-12T09:43:46;8.23;;;6.88;;
5730;SDS011;2890;51.950;7.668;2022-09-12T09:46:16;9.30;;;6.68;;
5730;SDS011;2890;51.950;7.668;2022-09-12T09:48:44;10.63;;;7.18;;
5730;SDS011;2890;51.950;7.668;2022-09-12T09:51:12;8.80;;;7.35;;
5730;SDS011;2890;51.950;7.668;2022-09-12T09:53:42;7.05;;;6.05;;
5730;SDS011;2890;51.950;7.668;2022-09-12T09:56:19;7.40;;;6.50;;
5730;SDS011;2890;51.950;7.668;2022-09-12T09:58:52;8.55;;;6.88;;
5730;SDS011;2890;51.950;7.668;2022-09-12T10:01:21;7.03;;;6.32;;
5730;SDS011;2890;51.950;7.668;2022-09-12T10:03:49;9.57;;;6.47;;
5730;SDS011;2890;51.950;7.668;2022-09-12T10:06:24;8.95;;;7.28;;
5730;SDS011;2890;51.950;7.668;2022-09-12T10:08:51;8.18;;;6.47;;
5730;SDS011;2890;51.950;7.668;2022-09-12T10:11:29;7.82;;;6.53;;
5730;SDS011;2890;51.950;7.668;2022-09-12T10:13:58;8.13;;;7.03;;
5730;SDS011;2890;51.950;7.668;2022-09-12T10:16:27;8.65;;;6.95;;
5730;SDS011;2890;51.950;7.668;2022-09-12T10:18:55;9.82;;;7.30;;
5730;SDS011;2890;51.950;7.668;2022-09-12T10:21:32;8.20;;;7.35;;
5730;SDS011;2890;51.950;7.668;2022-09-12T10:24:05;8.40;;;7.40;;
5730;SDS011;2890;51.950;7.668;2022-09-12T10:26:39;8.60;;;7.70;;
5730;SDS011;2890;51.950;7.668;2022-09-12T10:29:10;9.57;;;8.43;;
5730;SDS011;2890;51.950;7.668;2022-09-12T10:31:45;8.80;;;7.25;;
5730;SDS011;2890;51.950;7.668;2022-09-12T10:34:23;9.43;;;8.52;;
5730;SDS011;2890;51.950;7.668;2022-09-12T10:36:52;8.63;;;7.22;;
5730;SDS011;2890;51.950;7.668;2022-09-12T10:39:20;9.23;;;8.13;;
5730;SDS011;2890;51.950;7.668;2022-09-12T10:41:47;9.93;;;7.85;;
5730;SDS011;2890;51.950;7.668;2022-09-12T10:44:15;6.63;;;5.90;;
5730;SDS011;2890;51.950;7.668;2022-09-12T10:46:44;7.50;;;6.80;;
5730;SDS011;2890;51.950;7.668;2022-09-12T10:49:12;9.35;;;6.95;;
5730;SDS011;2890;51.950;7.668;2022-09-12T10:51:40;7.38;;;6.03;;
5730;SDS011;2890;51.950;7.668;2022-09-12T10:54:07;7.32;;;6.70;;
5730;SDS011;2890;51.950;7.668;2022-09-12T10:56:37;7.65;;;6.88;;
5730;SDS011;2890;51.950;7.668;2022-09-12T10:59:07;7.60;;;6.65;;
5730;SDS011;2890;51.950;7.668;2022-09-12T11:01:38;7.28;;;6.03;;
5730;SDS011;2890;51.950;7.668;2022-09-12T11:04:19;6.60;;;6.00;;
5730;SDS011;2890;51.950;7.668;2022-09-12T11:06:50;7.22;;;5.47;;
5730;SDS011;2890;51.950;7.668;2022-09-12T11:09:20;6.10;;;5.50;;
5730;SDS011;2890;51.950;7.668;2022-09-12T11:11:58;5.68;;;5.18;;
5730;SDS011;2890;51.950;7.668;2022-09-12T11:14:36;5.22;;;4.65;;
5730;SDS011;2890;51.950;7.668;2022-09-12T11:17:08;4.45;;;4.05;;
5730;SDS011;2890;51.950;7.668;2022-09-12T11:19:47;5.68;;;4.53;;
5730;SDS011;2890;51.950;7.668;2022-09-12T11:22:21;5.43;;;4.45;;
5730;SDS011;2890;51.950;7.668;2022-09-12T11:25:04;7.80;;;4.32;;
5730;SDS011;2890;51.950;7.668;2022-09-12T11:27:37;5.70;;;4.13;;
5730;SDS011;2890;51.950;7.668;2022-09-12T11:30:09;4.93;;;4.32;;
5730;SDS011;2890;51.950;7.668;2022-09-12T11:32:40;4.15;;;3.75;;
5730;SDS011;2890;51.950;7.668;2022-09-12T11:35:14;6.07;;;4.40;;
5730;SDS011;2890;51.950;7.668;2022-09-12T11:37:50;5.20;;;4.68;;
5730;SDS011;2890;51.950;7.668;2022-09-12T11:40:22;6.32;;;3.97;;
5730;SDS011;2890;51.950;7.668;2022-09-12T11:42:53;5.93;;;4.55;;
5730;SDS011;2890;51.950;7.668;2022-09-12T11:45:23;3.92;;;3.63;;
5730;SDS011;2890;51.950;7.668;2022-09-12T11:47:53;5.88;;;4.47;;
5730;SDS011;2890;51.950;7.668;2022-09-12T11:50:23;5.07;;;4.05;;
5730;SDS011;2890;51.950;7.668;2022-09-12T11:52:53;3.78;;;3.45;;
5730;SDS011;2890;51.950;7.668;2022-09-12T11:55:24;4.10;;;3.70;;
5730;SDS011;2890;51.950;7.668;2022-09-12T11:57:54;3.85;;;3.50;;
5730;SDS011;2890;51.950;7.668;2022-09-12T12:00:23;4.63;;;4.22;;
5730;SDS011;2890;51.950;7.668;2022-09-12T12:02:54;4.93;;;4.22;;
5730;SDS011;2890;51.950;7.668;2022-09-12T12:05:28;3.92;;;3.53;;
5730;SDS011;2890;51.950;7.668;2022-09-12T12:07:57;4.05;;;3.55;;
5730;SDS011;2890;51.950;7.668;2022-09-12T12:10:26;4.57;;;3.80;;
5730;SDS011;2890;51.950;7.668;2022-09-12T12:12:55;6.15;;;3.60;;
5730;SDS011;2890;51.950;7.668;2022-09-12T12:15:23;6.53;;;3.83;;
5730;SDS011;2890;51.950;7.668;2022-09-12T12:18:04;4.47;;;3.53;;
5730;SDS011;2890;51.950;7.668;2022-09-12T12:20:34;5.13;;;4.22;;
5730;SDS011;2890;51.950;7.668;2022-09-12T12:23:01;5.43;;;4.68;;
5730;SDS011;2890;51.950;7.668;2022-09-12T12:25:39;4.68;;;4.18;;
5730;SDS011;2890;51.950;7.668;2022-09-12T12:28:07;7.80;;;4.57;;
5730;SDS011;2890;51.950;7.668;2022-09-12T12:36:10;4.63;;;4.22;;
5730;SDS011;2890;51.950;7.668;2022-09-12T12:38:54;5.50;;;4.50;;
5730;SDS011;2890;51.950;7.668;2022-09-12T12:49:33;5.25;;;3.20;;
5730;SDS011;2890;51.950;7.668;2022-09-12T12:52:01;4.22;;;3.70;;
5730;SDS011;2890;51.950;7.668;2022-09-12T12:54:30;3.22;;;2.92;;
5730;SDS011;2890;51.950;7.668;2022-09-12T12:57:05;5.07;;;3.03;;
5730;SDS011;2890;51.950;7.668;2022-09-12T12:59:44;3.25;;;2.88;;
5730;SDS011;2890;51.950;7.668;2022-09-12T13:02:14;5.30;;;2.95;;
5730;SDS011;2890;51.950;7.668;2022-09-12T13:04:43;4.60;;;2.80;;
5730;SDS011;2890;51.950;7.668;2022-09-12T13:07:12;4.05;;;2.90;;
5730;SDS011;2890;51.950;7.668;2022-09-12T13:09:47;3.78;;;2.65;;
5730;SDS011;2890;51.950;7.668;2022-09-12T13:12:19;3.65;;;3.33;;
5730;SDS011;2890;51.950;7.668;2022-09-12T13:14:52;4.28;;;3.53;;
5730;SDS011;2890;51.950;7.668;2022-09-12T13:17:27;4.00;;;3.60;;
5730;SDS011;2890;51.950;7.668;2022-09-12T13:20:01;5.72;;;3.35;;
5730;SDS011;2890;51.950;7.668;2022-09-12T13:22:38;3.88;;;2.97;;
5730;SDS011;2890;51.950;7.668;2022-09-12T13:25:17;4.63;;;3.08;;
5730;SDS011;2890;51.950;7.668;2022-09-12T13:27:55;3.92;;;3.10;;
5730;SDS011;2890;51.950;7.668;2022-09-12T13:30:22;2.88;;;2.67;;
5730;SDS011;2890;51.950;7.668;2022-09-12T13:32:49;3.95;;;2.63;;
5730;SDS011;2890;51.950;7.668;2022-09-12T13:35:18;4.18;;;2.72;;
5730;SDS011;2890;51.950;7.668;2022-09-12T13:37:50;4.25;;;2.97;;
5730;SDS011;2890;51.950;7.668;2022-09-12T13:40:27;3.28;;;2.67;;
5730;SDS011;2890;51.950;7.668;2022-09-12T13:43:11;3.25;;;2.95;;
5730;SDS011;2890;51.950;7.668;2022-09-12T13:45:40;5.35;;;2.95;;
5730;SDS011;2890;51.950;7.668;2022-09-12T13:48:09;2.90;;;2.60;;
5730;SDS011;2890;51.950;7.668;2022-09-12T13:50:40;4.95;;;2.70;;
5730;SDS011;2890;51.950;7.668;2022-09-12T13:53:11;4.38;;;3.05;;
5730;SDS011;2890;51.950;7.668;2022-09-12T13:55:40;3.15;;;2.80;;
5730;SDS011;2890;51.950;7.668;2022-09-12T13:58:14;4.10;;;3.20;;
5730;SDS011;2890;51.950;7.668;2022-09-12T14:00:42;4.00;;;2.72;;
5730;SDS011;2890;51.950;7.668;2022-09-12T14:03:23;3.78;;;2.40;;
5730;SDS011;2890;51.950;7.668;2022-09-12T14:06:09;3.17;;;2.75;;
5730;SDS011;2890;51.950;7.668;2022-09-12T14:08:39;3.70;;;2.72;;
5730;SDS011;2890;51.950;7.668;2022-09-12T14:11:07;4.13;;;2.83;;
5730;SDS011;2890;51.950;7.668;2022-09-12T14:13:35;2.90;;;2.63;;
5730;SDS011;2890;51.950;7.668;2022-09-12T14:16:03;4.55;;;2.88;;
5730;SDS011;2890;51.950;7.668;2022-09-12T14:18:33;2.45;;;2.25;;
5730;SDS011;2890;51.950;7.668;2022-09-12T14:21:05;2.83;;;2.30;;
5730;SDS011;2890;51.950;7.668;2022-09-12T14:23:38;9.45;;;3.00;;
5730;SDS011;2890;51.950;7.668;2022-09-12T14:26:08;3.40;;;2.45;;
5730;SDS011;2890;51.950;7.668;2022-09-12T14:28:38;3.35;;;2.40;;
5730;SDS011;2890;51.950;7.668;2022-09-12T14:31:19;3.88;;;2.60;;
5730;SDS011;2890;51.950;7.668;2022-09-12T14:33:48;3.00;;;2.58;;
5730;SDS011;2890;51.950;7.668;2022-09-12T14:36:17;3.85;;;2.75;;
5730;SDS011;2890;51.950;7.668;2022-09-12T14:38:49;2.67;;;2.47;;
5730;SDS011;2890;51.950;7.668;2022-09-12T14:41:21;4.05;;;2.22;;
5730;SDS011;2890;51.950;7.668;2022-09-12T14:43:51;2.53;;;2.25;;
5730;SDS011;2890;51.950;7.668;2022-09-12T14:46:22;3.22;;;2.50;;
5730;SDS011;2890;51.950;7.668;2022-09-12T14:48:52;3.10;;;2.80;;
5730;SDS011;2890;51.950;7.668;2022-09-12T14:51:24;3.30;;;2.85;;
5730;SDS011;2890;51.950;7.668;2022-09-12T14:53:53;2.47;;;2.28;;
5730;SDS011;2890;51.950;7.668;2022-09-12T14:56:20;3.65;;;2.50;;
5730;SDS011;2890;51.950;7.668;2022-09-12T15:04:48;2.88;;;2.63;;
5730;SDS011;2890;51.950;7.668;2022-09-12T15:07:20;3.10;;;2.75;;
5730;SDS011;2890;51.950;7.668;2022-09-12T15:09:59;2.53;;;2.20;;
5730;SDS011;2890;51.950;7.668;2022-09-12T15:12:27;3.22;;;2.45;;
5730;SDS011;2890;51.950;7.668;2022-09-12T15:14:55;3.88;;;2.67;;
5730;SDS011;2890;51.950;7.668;2022-09-12T15:17:25;2.70;;;2.50;;
5730;SDS011;2890;51.950;7.668;2022-09-12T15:19:52;2.90;;;2.60;;
5730;SDS011;2890;51.950;7.668;2022-09-12T15:22:18;3.28;;;2.60;;
5730;SDS011;2890;51.950;7.668;2022-09-12T15:24:48;4.05;;;2.65;;
5730;SDS011;2890;51.950;7.668;2022-09-12T15:27:16;3.28;;;2.75;;
5730;SDS011;2890;51.950;7.668;2022-09-12T15:29:43;3.85;;;2.42;;
5730;SDS011;2890;51.950;7.668;2022-09-12T15:32:13;2.78;;;2.55;;
5730;SDS011;2890;51.950;7.668;2022-09-12T15:34:49;3.15;;;2.85;;
5730;SDS011;2890;51.950;7.668;2022-09-12T15:37:16;3.85;;;2.55;;
5730;SDS011;2890;51.950;7.668;2022-09-12T15:39:44;4.82;;;2.40;;
5730;SDS011;2890;51.950;7.668;2022-09-12T15:42:11;3.55;;;2.55;;
5730;SDS011;2890;51.950;7.668;2022-09-12T15:44:40;5.40;;;2.80;;